sensor_id;sensor_type;location;lat;lon;timestamp;P1;durP1;ratioP1;P2;durP2;ratioP2
4766;SDS011;2397;53.576;9.746;2022-09-21T00:01:07;6.53;;;2.90;;
4766;SDS011;2397;53.576;9.746;2022-09-21T00:03:36;5.70;;;3.00;;
4766;SDS011;2397;53.576;9.746;2022-09-21T00:06:03;3.37;;;2.53;;
4766;SDS011;2397;53.576;9.746;2022-09-21T00:08:31;5.10;;;2.63;;
4766;SDS011;2397;53.576;9.746;2022-09-21T00:10:57;4.10;;;2.50;;
4766;SDS011;2397;53.576;9.746;2022-09-21T00:13:25;6.40;;;2.57;;
4766;SDS011;2397;53.576;9.746;2022-09-21T00:15:54;4.07;;;2.43;;
4766;SDS011;2397;53.576;9.746;2022-09-21T00:18:21;3.13;;;2.53;;
4766;SDS011;2397;53.576;9.746;2022-09-21T00:20:48;7.23;;;2.87;;
4766;SDS011;2397;53.576;9.746;2022-09-21T00:23:15;5.07;;;2.80;;
4766;SDS011;2397;53.576;9.746;2022-09-21T00:25:41;5.40;;;2.60;;
4766;SDS011;2397;53.576;9.746;2022-09-21T00:28:07;3.57;;;3.30;;
4766;SDS011;2397;53.576;9.746;2022-09-21T00:30:34;11.53;;;2.60;;
4766;SDS011;2397;53.576;9.746;2022-09-21T00:33:00;7.03;;;2.80;;
4766;SDS011;2397;53.576;9.746;2022-09-21T00:35:27;4.40;;;2.80;;
4766;SDS011;2397;53.576;9.746;2022-09-21T00:37:53;8.00;;;2.60;;
4766;SDS011;2397;53.576;9.746;2022-09-21T00:40:20;6.13;;;2.53;;
4766;SDS011;2397;53.576;9.746;2022-09-21T00:42:46;2.90;;;2.20;;
4766;SDS011;2397;53.576;9.746;2022-09-21T00:45:13;5.63;;;2.30;;
4766;SDS011;2397;53.576;9.746;2022-09-21T00:47:47;2.80;;;2.33;;
4766;SDS011;2397;53.576;9.746;2022-09-21T00:50:19;2.67;;;2.43;;
4766;SDS011;2397;53.576;9.746;2022-09-21T00:52:53;2.90;;;2.60;;
4766;SDS011;2397;53.576;9.746;2022-09-21T00:55:29;2.70;;;2.37;;
4766;SDS011;2397;53.576;9.746;2022-09-21T00:58:01;4.43;;;2.50;;
4766;SDS011;2397;53.576;9.746;2022-09-21T01:00:33;5.00;;;2.77;;
4766;SDS011;2397;53.576;9.746;2022-09-21T01:03:02;3.10;;;2.60;;
4766;SDS011;2397;53.576;9.746;2022-09-21T01:05:29;4.20;;;2.37;;
4766;SDS011;2397;53.576;9.746;2022-09-21T01:07:57;2.27;;;2.07;;
4766;SDS011;2397;53.576;9.746;2022-09-21T01:10:27;4.00;;;2.40;;
4766;SDS011;2397;53.576;9.746;2022-09-21T01:15:48;5.70;;;3.17;;
4766;SDS011;2397;53.576;9.746;2022-09-21T01:18:29;3.67;;;2.60;;
4766;SDS011;2397;53.576;9.746;2022-09-21T01:24:07;6.63;;;2.90;;
4766;SDS011;2397;53.576;9.746;2022-09-21T01:29:12;4.20;;;2.30;;
4766;SDS011;2397;53.576;9.746;2022-09-21T01:34:48;2.63;;;2.07;;
4766;SDS011;2397;53.576;9.746;2022-09-21T01:37:23;3.00;;;2.40;;
4766;SDS011;2397;53.576;9.746;2022-09-21T01:40:10;3.83;;;2.43;;
4766;SDS011;2397;53.576;9.746;2022-09-21T01:42:40;5.63;;;2.40;;
4766;SDS011;2397;53.576;9.746;2022-09-21T01:45:10;4.10;;;1.90;;
4766;SDS011;2397;53.576;9.746;2022-09-21T01:47:41;4.17;;;2.10;;
4766;SDS011;2397;53.576;9.746;2022-09-21T01:50:11;4.13;;;2.40;;
4766;SDS011;2397;53.576;9.746;2022-09-21T01:52:41;5.20;;;2.40;;
4766;SDS011;2397;53.576;9.746;2022-09-21T01:55:30;2.87;;;2.57;;
4766;SDS011;2397;53.576;9.746;2022-09-21T01:58:04;6.67;;;2.40;;
4766;SDS011;2397;53.576;9.746;2022-09-21T02:00:37;5.10;;;2.70;;
4766;SDS011;2397;53.576;9.746;2022-09-21T02:03:09;4.20;;;2.00;;
4766;SDS011;2397;53.576;9.746;2022-09-21T02:05:40;4.00;;;2.40;;
4766;SDS011;2397;53.576;9.746;2022-09-21T02:08:08;2.63;;;2.20;;
4766;SDS011;2397;53.576;9.746;2022-09-21T02:10:41;5.37;;;2.20;;
4766;SDS011;2397;53.576;9.746;2022-09-21T02:13:10;3.60;;;2.37;;
4766;SDS011;2397;53.576;9.746;2022-09-21T02:18:30;2.63;;;2.27;;
4766;SDS011;2397;53.576;9.746;2022-09-21T02:21:24;3.73;;;2.23;;
4766;SDS011;2397;53.576;9.746;2022-09-21T02:24:12;5.13;;;2.47;;
4766;SDS011;2397;53.576;9.746;2022-09-21T02:26:54;3.50;;;2.47;;
4766;SDS011;2397;53.576;9.746;2022-09-21T02:32:15;2.40;;;2.20;;
4766;SDS011;2397;53.576;9.746;2022-09-21T02:34:57;2.77;;;2.20;;
4766;SDS011;2397;53.576;9.746;2022-09-21T02:37:44;10.07;;;2.70;;
4766;SDS011;2397;53.576;9.746;2022-09-21T02:40:21;2.53;;;2.33;;
4766;SDS011;2397;53.576;9.746;2022-09-21T02:42:52;4.80;;;2.90;;
4766;SDS011;2397;53.576;9.746;2022-09-21T02:45:25;4.47;;;2.90;;
4766;SDS011;2397;53.576;9.746;2022-09-21T02:48:17;6.40;;;2.50;;
4766;SDS011;2397;53.576;9.746;2022-09-21T02:50:56;5.63;;;3.17;;
4766;SDS011;2397;53.576;9.746;2022-09-21T02:53:26;6.10;;;3.47;;
4766;SDS011;2397;53.576;9.746;2022-09-21T02:55:57;7.20;;;3.37;;
4766;SDS011;2397;53.576;9.746;2022-09-21T02:58:28;7.20;;;3.63;;
4766;SDS011;2397;53.576;9.746;2022-09-21T03:00:57;8.50;;;4.33;;
4766;SDS011;2397;53.576;9.746;2022-09-21T03:03:24;7.60;;;3.93;;
4766;SDS011;2397;53.576;9.746;2022-09-21T03:05:52;13.27;;;4.50;;
4766;SDS011;2397;53.576;9.746;2022-09-21T03:08:20;26.40;;;5.70;;
4766;SDS011;2397;53.576;9.746;2022-09-21T03:10:47;23.40;;;4.63;;
4766;SDS011;2397;53.576;9.746;2022-09-21T03:13:15;22.07;;;5.53;;
4766;SDS011;2397;53.576;9.746;2022-09-21T03:15:43;117.37;;;8.43;;
4766;SDS011;2397;53.576;9.746;2022-09-21T03:18:10;66.87;;;7.37;;
4766;SDS011;2397;53.576;9.746;2022-09-21T03:20:38;40.57;;;6.77;;
4766;SDS011;2397;53.576;9.746;2022-09-21T03:23:06;10.17;;;4.90;;
4766;SDS011;2397;53.576;9.746;2022-09-21T03:25:33;13.27;;;4.83;;
4766;SDS011;2397;53.576;9.746;2022-09-21T03:27:59;26.33;;;5.63;;
4766;SDS011;2397;53.576;9.746;2022-09-21T03:30:26;25.93;;;6.03;;
4766;SDS011;2397;53.576;9.746;2022-09-21T03:32:54;12.27;;;5.23;;
4766;SDS011;2397;53.576;9.746;2022-09-21T03:35:22;44.07;;;7.27;;
4766;SDS011;2397;53.576;9.746;2022-09-21T03:37:50;25.70;;;7.70;;
4766;SDS011;2397;53.576;9.746;2022-09-21T03:40:16;26.37;;;6.70;;
4766;SDS011;2397;53.576;9.746;2022-09-21T03:42:44;57.50;;;9.20;;
4766;SDS011;2397;53.576;9.746;2022-09-21T03:45:11;47.53;;;8.23;;
4766;SDS011;2397;53.576;9.746;2022-09-21T03:47:38;51.23;;;9.50;;
4766;SDS011;2397;53.576;9.746;2022-09-21T03:50:05;26.97;;;7.40;;
4766;SDS011;2397;53.576;9.746;2022-09-21T03:52:35;14.83;;;7.20;;
4766;SDS011;2397;53.576;9.746;2022-09-21T03:55:03;43.27;;;9.77;;
4766;SDS011;2397;53.576;9.746;2022-09-21T03:57:33;22.03;;;7.40;;
4766;SDS011;2397;53.576;9.746;2022-09-21T04:00:05;30.40;;;7.10;;
4766;SDS011;2397;53.576;9.746;2022-09-21T04:02:34;35.87;;;7.60;;
4766;SDS011;2397;53.576;9.746;2022-09-21T04:05:01;77.73;;;9.17;;
4766;SDS011;2397;53.576;9.746;2022-09-21T04:07:30;85.63;;;10.67;;
4766;SDS011;2397;53.576;9.746;2022-09-21T04:09:59;91.17;;;10.50;;
4766;SDS011;2397;53.576;9.746;2022-09-21T04:12:26;37.70;;;9.40;;
4766;SDS011;2397;53.576;9.746;2022-09-21T04:14:52;29.47;;;11.30;;
4766;SDS011;2397;53.576;9.746;2022-09-21T04:17:19;13.67;;;9.70;;
4766;SDS011;2397;53.576;9.746;2022-09-21T04:19:45;14.33;;;9.67;;
4766;SDS011;2397;53.576;9.746;2022-09-21T04:22:12;11.87;;;8.40;;
4766;SDS011;2397;53.576;9.746;2022-09-21T04:24:39;11.20;;;7.50;;
4766;SDS011;2397;53.576;9.746;2022-09-21T04:27:09;8.63;;;6.90;;
4766;SDS011;2397;53.576;9.746;2022-09-21T04:29:37;20.20;;;8.80;;
4766;SDS011;2397;53.576;9.746;2022-09-21T04:32:04;22.30;;;9.10;;
4766;SDS011;2397;53.576;9.746;2022-09-21T04:34:30;19.17;;;10.70;;
4766;SDS011;2397;53.576;9.746;2022-09-21T04:36:57;18.83;;;8.90;;
4766;SDS011;2397;53.576;9.746;2022-09-21T04:39:24;11.57;;;8.30;;
4766;SDS011;2397;53.576;9.746;2022-09-21T04:41:51;15.20;;;8.70;;
4766;SDS011;2397;53.576;9.746;2022-09-21T04:44:17;22.97;;;10.00;;
4766;SDS011;2397;53.576;9.746;2022-09-21T04:46:44;24.43;;;11.47;;
4766;SDS011;2397;53.576;9.746;2022-09-21T04:49:11;27.63;;;10.40;;
4766;SDS011;2397;53.576;9.746;2022-09-21T04:51:38;15.97;;;10.07;;
4766;SDS011;2397;53.576;9.746;2022-09-21T04:54:04;33.27;;;11.37;;
4766;SDS011;2397;53.576;9.746;2022-09-21T04:56:32;47.93;;;12.20;;
4766;SDS011;2397;53.576;9.746;2022-09-21T04:58:59;45.97;;;12.57;;
4766;SDS011;2397;53.576;9.746;2022-09-21T05:01:25;67.07;;;11.60;;
4766;SDS011;2397;53.576;9.746;2022-09-21T05:03:52;20.03;;;8.90;;
4766;SDS011;2397;53.576;9.746;2022-09-21T05:06:19;113.97;;;13.67;;
4766;SDS011;2397;53.576;9.746;2022-09-21T05:08:45;40.53;;;9.20;;
4766;SDS011;2397;53.576;9.746;2022-09-21T05:11:30;21.83;;;8.97;;
4766;SDS011;2397;53.576;9.746;2022-09-21T05:13:57;20.00;;;8.93;;
4766;SDS011;2397;53.576;9.746;2022-09-21T05:16:23;54.60;;;9.57;;
4766;SDS011;2397;53.576;9.746;2022-09-21T05:18:51;54.63;;;10.90;;
4766;SDS011;2397;53.576;9.746;2022-09-21T05:21:18;59.77;;;10.37;;
4766;SDS011;2397;53.576;9.746;2022-09-21T05:23:45;12.30;;;8.30;;
4766;SDS011;2397;53.576;9.746;2022-09-21T05:26:11;16.73;;;8.00;;
4766;SDS011;2397;53.576;9.746;2022-09-21T05:28:38;23.43;;;8.60;;
4766;SDS011;2397;53.576;9.746;2022-09-21T05:31:10;12.43;;;8.47;;
4766;SDS011;2397;53.576;9.746;2022-09-21T05:33:51;11.43;;;8.13;;
4766;SDS011;2397;53.576;9.746;2022-09-21T05:39:22;13.83;;;6.93;;
4766;SDS011;2397;53.576;9.746;2022-09-21T05:41:49;20.17;;;8.00;;
4766;SDS011;2397;53.576;9.746;2022-09-21T05:44:16;9.63;;;6.90;;
4766;SDS011;2397;53.576;9.746;2022-09-21T05:46:54;23.77;;;8.10;;
4766;SDS011;2397;53.576;9.746;2022-09-21T05:58:02;29.23;;;9.27;;
4766;SDS011;2397;53.576;9.746;2022-09-21T06:03:39;63.77;;;12.97;;
4766;SDS011;2397;53.576;9.746;2022-09-21T06:06:07;58.37;;;11.90;;
4766;SDS011;2397;53.576;9.746;2022-09-21T06:08:34;65.77;;;10.93;;
4766;SDS011;2397;53.576;9.746;2022-09-21T06:11:01;14.50;;;8.13;;
4766;SDS011;2397;53.576;9.746;2022-09-21T06:13:27;68.93;;;11.27;;
4766;SDS011;2397;53.576;9.746;2022-09-21T06:15:53;42.27;;;9.20;;
4766;SDS011;2397;53.576;9.746;2022-09-21T06:18:20;197.53;;;14.77;;
4766;SDS011;2397;53.576;9.746;2022-09-21T06:20:46;83.27;;;10.70;;
4766;SDS011;2397;53.576;9.746;2022-09-21T06:23:13;50.10;;;10.00;;
4766;SDS011;2397;53.576;9.746;2022-09-21T06:25:40;42.27;;;9.87;;
4766;SDS011;2397;53.576;9.746;2022-09-21T06:28:07;60.47;;;9.43;;
4766;SDS011;2397;53.576;9.746;2022-09-21T06:30:35;57.07;;;10.37;;
4766;SDS011;2397;53.576;9.746;2022-09-21T06:33:04;92.57;;;11.60;;
4766;SDS011;2397;53.576;9.746;2022-09-21T06:35:32;365.87;;;21.30;;
4766;SDS011;2397;53.576;9.746;2022-09-21T06:38:00;108.13;;;15.80;;
4766;SDS011;2397;53.576;9.746;2022-09-21T06:40:28;21.33;;;8.47;;
4766;SDS011;2397;53.576;9.746;2022-09-21T06:42:59;68.73;;;11.50;;
4766;SDS011;2397;53.576;9.746;2022-09-21T06:45:27;78.60;;;11.13;;
4766;SDS011;2397;53.576;9.746;2022-09-21T06:47:55;19.40;;;9.43;;
4766;SDS011;2397;53.576;9.746;2022-09-21T06:50:21;27.27;;;10.23;;
4766;SDS011;2397;53.576;9.746;2022-09-21T06:52:48;34.43;;;10.20;;
4766;SDS011;2397;53.576;9.746;2022-09-21T06:55:15;13.07;;;9.20;;
4766;SDS011;2397;53.576;9.746;2022-09-21T06:57:41;14.17;;;8.90;;
4766;SDS011;2397;53.576;9.746;2022-09-21T07:00:09;12.30;;;9.10;;
4766;SDS011;2397;53.576;9.746;2022-09-21T07:02:40;13.57;;;9.20;;
4766;SDS011;2397;53.576;9.746;2022-09-21T07:05:08;31.87;;;12.03;;
4766;SDS011;2397;53.576;9.746;2022-09-21T07:07:34;18.97;;;10.70;;
4766;SDS011;2397;53.576;9.746;2022-09-21T07:10:01;12.33;;;11.03;;
4766;SDS011;2397;53.576;9.746;2022-09-21T07:12:31;13.90;;;10.93;;
4766;SDS011;2397;53.576;9.746;2022-09-21T07:15:03;19.67;;;12.70;;
4766;SDS011;2397;53.576;9.746;2022-09-21T07:17:31;16.50;;;11.30;;
4766;SDS011;2397;53.576;9.746;2022-09-21T07:20:01;12.50;;;9.93;;
4766;SDS011;2397;53.576;9.746;2022-09-21T07:22:29;12.07;;;9.10;;
4766;SDS011;2397;53.576;9.746;2022-09-21T07:24:56;15.50;;;7.97;;
4766;SDS011;2397;53.576;9.746;2022-09-21T07:27:23;9.70;;;7.13;;
4766;SDS011;2397;53.576;9.746;2022-09-21T07:29:50;8.77;;;7.00;;
4766;SDS011;2397;53.576;9.746;2022-09-21T07:32:17;8.60;;;6.27;;
4766;SDS011;2397;53.576;9.746;2022-09-21T07:34:43;7.37;;;6.60;;
4766;SDS011;2397;53.576;9.746;2022-09-21T07:37:10;15.70;;;6.40;;
4766;SDS011;2397;53.576;9.746;2022-09-21T07:39:37;6.70;;;5.30;;
4766;SDS011;2397;53.576;9.746;2022-09-21T07:42:04;7.20;;;5.63;;
4766;SDS011;2397;53.576;9.746;2022-09-21T07:44:31;8.73;;;5.83;;
4766;SDS011;2397;53.576;9.746;2022-09-21T07:46:59;10.60;;;6.20;;
4766;SDS011;2397;53.576;9.746;2022-09-21T07:49:26;8.90;;;6.27;;
4766;SDS011;2397;53.576;9.746;2022-09-21T07:51:53;9.63;;;5.83;;
4766;SDS011;2397;53.576;9.746;2022-09-21T07:54:19;7.33;;;6.10;;
4766;SDS011;2397;53.576;9.746;2022-09-21T07:56:46;8.07;;;6.50;;
4766;SDS011;2397;53.576;9.746;2022-09-21T07:59:32;8.03;;;5.93;;
4766;SDS011;2397;53.576;9.746;2022-09-21T08:01:59;7.60;;;6.50;;
4766;SDS011;2397;53.576;9.746;2022-09-21T08:04:25;11.00;;;7.67;;
4766;SDS011;2397;53.576;9.746;2022-09-21T08:06:52;9.70;;;7.27;;
4766;SDS011;2397;53.576;9.746;2022-09-21T08:09:18;8.33;;;7.50;;
4766;SDS011;2397;53.576;9.746;2022-09-21T08:11:44;11.23;;;7.50;;
4766;SDS011;2397;53.576;9.746;2022-09-21T08:14:12;11.07;;;8.23;;
4766;SDS011;2397;53.576;9.746;2022-09-21T08:16:51;10.40;;;8.30;;
4766;SDS011;2397;53.576;9.746;2022-09-21T08:19:17;10.30;;;8.03;;
4766;SDS011;2397;53.576;9.746;2022-09-21T08:21:44;11.53;;;9.90;;
4766;SDS011;2397;53.576;9.746;2022-09-21T08:24:19;10.47;;;9.37;;
4766;SDS011;2397;53.576;9.746;2022-09-21T08:26:45;10.37;;;9.37;;
4766;SDS011;2397;53.576;9.746;2022-09-21T08:29:12;10.20;;;9.10;;
4766;SDS011;2397;53.576;9.746;2022-09-21T08:31:41;11.77;;;9.90;;
4766;SDS011;2397;53.576;9.746;2022-09-21T08:34:08;12.60;;;9.87;;
4766;SDS011;2397;53.576;9.746;2022-09-21T08:36:35;12.20;;;10.60;;
4766;SDS011;2397;53.576;9.746;2022-09-21T08:39:01;9.60;;;8.63;;
4766;SDS011;2397;53.576;9.746;2022-09-21T08:44:13;15.17;;;9.70;;
4766;SDS011;2397;53.576;9.746;2022-09-21T08:46:45;11.13;;;9.33;;
4766;SDS011;2397;53.576;9.746;2022-09-21T08:49:20;11.10;;;9.17;;
4766;SDS011;2397;53.576;9.746;2022-09-21T08:51:51;11.03;;;9.10;;
4766;SDS011;2397;53.576;9.746;2022-09-21T08:54:24;10.10;;;8.10;;
4766;SDS011;2397;53.576;9.746;2022-09-21T08:56:54;13.07;;;8.83;;
4766;SDS011;2397;53.576;9.746;2022-09-21T08:59:36;11.67;;;8.13;;
4766;SDS011;2397;53.576;9.746;2022-09-21T09:08:00;14.47;;;8.53;;
4766;SDS011;2397;53.576;9.746;2022-09-21T09:13:32;11.00;;;8.90;;
4766;SDS011;2397;53.576;9.746;2022-09-21T09:18:41;11.23;;;7.77;;
4766;SDS011;2397;53.576;9.746;2022-09-21T09:21:28;11.93;;;8.67;;
4766;SDS011;2397;53.576;9.746;2022-09-21T09:27:03;11.23;;;6.40;;
4766;SDS011;2397;53.576;9.746;2022-09-21T09:30:02;8.27;;;5.70;;
4766;SDS011;2397;53.576;9.746;2022-09-21T09:33:00;11.83;;;6.03;;
4766;SDS011;2397;53.576;9.746;2022-09-21T09:38:11;6.17;;;5.57;;
4766;SDS011;2397;53.576;9.746;2022-09-21T09:40:55;11.30;;;5.40;;
4766;SDS011;2397;53.576;9.746;2022-09-21T09:44:05;4.80;;;4.30;;
4766;SDS011;2397;53.576;9.746;2022-09-21T09:52:34;6.47;;;4.50;;
4766;SDS011;2397;53.576;9.746;2022-09-21T09:55:21;10.70;;;4.97;;
4766;SDS011;2397;53.576;9.746;2022-09-21T09:57:52;8.80;;;4.87;;
4766;SDS011;2397;53.576;9.746;2022-09-21T10:00:20;8.43;;;4.57;;
4766;SDS011;2397;53.576;9.746;2022-09-21T10:02:47;15.00;;;4.77;;
4766;SDS011;2397;53.576;9.746;2022-09-21T10:05:23;4.57;;;3.70;;
4766;SDS011;2397;53.576;9.746;2022-09-21T10:07:56;10.37;;;3.30;;
4766;SDS011;2397;53.576;9.746;2022-09-21T10:10:23;5.97;;;3.30;;
4766;SDS011;2397;53.576;9.746;2022-09-21T10:16:11;10.50;;;2.97;;
4766;SDS011;2397;53.576;9.746;2022-09-21T10:18:44;4.97;;;3.47;;
4766;SDS011;2397;53.576;9.746;2022-09-21T10:23:50;7.00;;;3.73;;
4766;SDS011;2397;53.576;9.746;2022-09-21T10:26:35;6.60;;;3.67;;
4766;SDS011;2397;53.576;9.746;2022-09-21T10:31:55;9.03;;;3.60;;
4766;SDS011;2397;53.576;9.746;2022-09-21T10:37:31;4.67;;;3.10;;
4766;SDS011;2397;53.576;9.746;2022-09-21T10:40:03;5.10;;;3.47;;
4766;SDS011;2397;53.576;9.746;2022-09-21T10:42:47;4.77;;;2.67;;
4766;SDS011;2397;53.576;9.746;2022-09-21T10:45:19;3.40;;;3.10;;
4766;SDS011;2397;53.576;9.746;2022-09-21T10:47:54;5.47;;;2.87;;
4766;SDS011;2397;53.576;9.746;2022-09-21T10:50:46;3.63;;;3.30;;
4766;SDS011;2397;53.576;9.746;2022-09-21T11:01:50;1.90;;;1.70;;
4766;SDS011;2397;53.576;9.746;2022-09-21T11:04:23;3.07;;;2.30;;
4766;SDS011;2397;53.576;9.746;2022-09-21T11:07:03;2.60;;;1.80;;
4766;SDS011;2397;53.576;9.746;2022-09-21T11:15:23;10.47;;;2.50;;
4766;SDS011;2397;53.576;9.746;2022-09-21T11:21:06;2.87;;;2.00;;
4766;SDS011;2397;53.576;9.746;2022-09-21T11:23:43;2.17;;;1.93;;
4766;SDS011;2397;53.576;9.746;2022-09-21T11:29:18;2.73;;;2.10;;
4766;SDS011;2397;53.576;9.746;2022-09-21T12:00:01;4.40;;;2.70;;
4766;SDS011;2397;53.576;9.746;2022-09-21T12:02:54;1.97;;;1.70;;
4766;SDS011;2397;53.576;9.746;2022-09-21T12:14:32;4.60;;;1.77;;
4766;SDS011;2397;53.576;9.746;2022-09-21T12:17:15;1.83;;;1.60;;
4766;SDS011;2397;53.576;9.746;2022-09-21T12:20:02;1.50;;;1.30;;
4766;SDS011;2397;53.576;9.746;2022-09-21T12:22:38;1.77;;;1.30;;
4766;SDS011;2397;53.576;9.746;2022-09-21T12:25:12;1.97;;;1.60;;
4766;SDS011;2397;53.576;9.746;2022-09-21T12:27:46;3.00;;;1.43;;
4766;SDS011;2397;53.576;9.746;2022-09-21T12:30:17;1.50;;;1.30;;
4766;SDS011;2397;53.576;9.746;2022-09-21T12:35:41;2.30;;;1.20;;
4766;SDS011;2397;53.576;9.746;2022-09-21T12:41:17;1.87;;;1.20;;
4766;SDS011;2397;53.576;9.746;2022-09-21T12:49:38;1.67;;;1.33;;
4766;SDS011;2397;53.576;9.746;2022-09-21T12:52:08;1.77;;;1.50;;
4766;SDS011;2397;53.576;9.746;2022-09-21T13:00:39;2.83;;;1.50;;
4766;SDS011;2397;53.576;9.746;2022-09-21T13:03:19;5.53;;;2.00;;
4766;SDS011;2397;53.576;9.746;2022-09-21T13:08:48;2.80;;;1.67;;
4766;SDS011;2397;53.576;9.746;2022-09-21T13:11:20;1.97;;;1.67;;
4766;SDS011;2397;53.576;9.746;2022-09-21T13:13:52;1.53;;;1.40;;
4766;SDS011;2397;53.576;9.746;2022-09-21T13:18:57;1.40;;;1.30;;
4766;SDS011;2397;53.576;9.746;2022-09-21T13:21:27;1.43;;;1.23;;
4766;SDS011;2397;53.576;9.746;2022-09-21T13:23:59;1.47;;;1.30;;
4766;SDS011;2397;53.576;9.746;2022-09-21T13:31:57;8.03;;;1.30;;
4766;SDS011;2397;53.576;9.746;2022-09-21T13:45:00;1.63;;;1.43;;
4766;SDS011;2397;53.576;9.746;2022-09-21T13:47:55;2.70;;;1.20;;
4766;SDS011;2397;53.576;9.746;2022-09-21T13:53:04;4.10;;;1.40;;
4766;SDS011;2397;53.576;9.746;2022-09-21T13:55:38;1.47;;;1.37;;
4766;SDS011;2397;53.576;9.746;2022-09-21T13:58:20;2.20;;;1.20;;
4766;SDS011;2397;53.576;9.746;2022-09-21T14:00:51;1.37;;;1.27;;
4766;SDS011;2397;53.576;9.746;2022-09-21T14:03:23;2.03;;;1.43;;
4766;SDS011;2397;53.576;9.746;2022-09-21T14:09:02;2.57;;;1.07;;
4766;SDS011;2397;53.576;9.746;2022-09-21T14:11:36;1.67;;;1.17;;
4766;SDS011;2397;53.576;9.746;2022-09-21T14:24:35;1.77;;;1.10;;
4766;SDS011;2397;53.576;9.746;2022-09-21T14:30:18;1.77;;;1.40;;
4766;SDS011;2397;53.576;9.746;2022-09-21T14:35:29;3.33;;;1.10;;
4766;SDS011;2397;53.576;9.746;2022-09-21T14:38:00;1.10;;;1.00;;
4766;SDS011;2397;53.576;9.746;2022-09-21T14:40:31;7.00;;;1.67;;
4766;SDS011;2397;53.576;9.746;2022-09-21T14:43:09;3.03;;;1.53;;
4766;SDS011;2397;53.576;9.746;2022-09-21T14:59:47;1.40;;;1.10;;
4766;SDS011;2397;53.576;9.746;2022-09-21T15:02:30;1.57;;;1.20;;
4766;SDS011;2397;53.576;9.746;2022-09-21T15:07:36;8.50;;;2.27;;
4766;SDS011;2397;53.576;9.746;2022-09-21T15:16:38;1.20;;;1.07;;
4766;SDS011;2397;53.576;9.746;2022-09-21T15:19:14;2.17;;;1.00;;
4766;SDS011;2397;53.576;9.746;2022-09-21T15:21:45;2.30;;;1.20;;
4766;SDS011;2397;53.576;9.746;2022-09-21T15:24:30;2.50;;;1.40;;
4766;SDS011;2397;53.576;9.746;2022-09-21T15:27:04;1.10;;;1.00;;
4766;SDS011;2397;53.576;9.746;2022-09-21T15:29:37;2.30;;;1.00;;
4766;SDS011;2397;53.576;9.746;2022-09-21T15:32:05;1.40;;;0.90;;
4766;SDS011;2397;53.576;9.746;2022-09-21T15:34:32;5.73;;;1.50;;
4766;SDS011;2397;53.576;9.746;2022-09-21T15:37:05;1.30;;;1.20;;
4766;SDS011;2397;53.576;9.746;2022-09-21T15:39:37;1.57;;;1.30;;
4766;SDS011;2397;53.576;9.746;2022-09-21T15:44:35;5.87;;;1.30;;
4766;SDS011;2397;53.576;9.746;2022-09-21T15:47:05;2.00;;;1.17;;
4766;SDS011;2397;53.576;9.746;2022-09-21T15:49:33;1.27;;;1.07;;
4766;SDS011;2397;53.576;9.746;2022-09-21T15:52:15;1.77;;;0.90;;
4766;SDS011;2397;53.576;9.746;2022-09-21T15:54:46;3.33;;;1.30;;
4766;SDS011;2397;53.576;9.746;2022-09-21T15:57:36;3.67;;;1.47;;
4766;SDS011;2397;53.576;9.746;2022-09-21T16:00:16;1.90;;;1.40;;
4766;SDS011;2397;53.576;9.746;2022-09-21T16:02:55;2.00;;;1.33;;
4766;SDS011;2397;53.576;9.746;2022-09-21T16:05:23;3.13;;;1.40;;
4766;SDS011;2397;53.576;9.746;2022-09-21T16:08:02;1.33;;;1.10;;
4766;SDS011;2397;53.576;9.746;2022-09-21T16:10:35;2.77;;;1.33;;
4766;SDS011;2397;53.576;9.746;2022-09-21T16:13:15;1.23;;;1.00;;
4766;SDS011;2397;53.576;9.746;2022-09-21T16:16:04;1.43;;;1.33;;
4766;SDS011;2397;53.576;9.746;2022-09-21T16:18:46;2.53;;;1.13;;
4766;SDS011;2397;53.576;9.746;2022-09-21T16:21:21;2.27;;;1.30;;
4766;SDS011;2397;53.576;9.746;2022-09-21T16:23:55;1.63;;;1.13;;
4766;SDS011;2397;53.576;9.746;2022-09-21T16:28:57;1.30;;;1.20;;
4766;SDS011;2397;53.576;9.746;2022-09-21T16:31:44;2.27;;;1.40;;
4766;SDS011;2397;53.576;9.746;2022-09-21T16:37:00;1.30;;;1.20;;
4766;SDS011;2397;53.576;9.746;2022-09-21T16:39:27;1.60;;;1.30;;
4766;SDS011;2397;53.576;9.746;2022-09-21T16:41:55;4.90;;;1.30;;
4766;SDS011;2397;53.576;9.746;2022-09-21T16:44:26;6.77;;;1.50;;
4766;SDS011;2397;53.576;9.746;2022-09-21T16:46:56;4.00;;;1.73;;
4766;SDS011;2397;53.576;9.746;2022-09-21T16:49:26;2.93;;;1.10;;
4766;SDS011;2397;53.576;9.746;2022-09-21T16:51:56;1.40;;;1.30;;
4766;SDS011;2397;53.576;9.746;2022-09-21T16:54:24;1.30;;;1.20;;
4766;SDS011;2397;53.576;9.746;2022-09-21T16:56:53;5.90;;;1.70;;
4766;SDS011;2397;53.576;9.746;2022-09-21T16:59:22;2.57;;;1.50;;
4766;SDS011;2397;53.576;9.746;2022-09-21T17:01:50;3.50;;;1.50;;
4766;SDS011;2397;53.576;9.746;2022-09-21T17:04:22;3.13;;;1.47;;
4766;SDS011;2397;53.576;9.746;2022-09-21T17:06:51;3.63;;;1.53;;
4766;SDS011;2397;53.576;9.746;2022-09-21T17:09:19;1.40;;;1.30;;
4766;SDS011;2397;53.576;9.746;2022-09-21T17:11:55;1.07;;;1.03;;
4766;SDS011;2397;53.576;9.746;2022-09-21T17:14:24;1.77;;;1.50;;
4766;SDS011;2397;53.576;9.746;2022-09-21T17:16:51;4.37;;;1.67;;
4766;SDS011;2397;53.576;9.746;2022-09-21T17:19:20;4.17;;;1.40;;
4766;SDS011;2397;53.576;9.746;2022-09-21T17:21:47;1.93;;;1.33;;
4766;SDS011;2397;53.576;9.746;2022-09-21T17:24:14;1.83;;;1.07;;
4766;SDS011;2397;53.576;9.746;2022-09-21T17:27:01;1.97;;;1.30;;
4766;SDS011;2397;53.576;9.746;2022-09-21T17:29:28;2.90;;;1.27;;
4766;SDS011;2397;53.576;9.746;2022-09-21T17:31:56;2.00;;;1.20;;
4766;SDS011;2397;53.576;9.746;2022-09-21T17:34:24;1.50;;;1.40;;
4766;SDS011;2397;53.576;9.746;2022-09-21T17:36:52;5.17;;;1.07;;
4766;SDS011;2397;53.576;9.746;2022-09-21T17:39:20;1.57;;;1.10;;
4766;SDS011;2397;53.576;9.746;2022-09-21T17:44:37;2.13;;;1.20;;
4766;SDS011;2397;53.576;9.746;2022-09-21T17:47:22;3.60;;;1.40;;
4766;SDS011;2397;53.576;9.746;2022-09-21T17:49:53;3.10;;;1.40;;
4766;SDS011;2397;53.576;9.746;2022-09-21T17:52:22;1.50;;;1.40;;
4766;SDS011;2397;53.576;9.746;2022-09-21T17:55:09;2.60;;;1.50;;
4766;SDS011;2397;53.576;9.746;2022-09-21T17:57:58;1.37;;;1.27;;
4766;SDS011;2397;53.576;9.746;2022-09-21T18:02:56;1.70;;;1.50;;
4766;SDS011;2397;53.576;9.746;2022-09-21T18:05:24;1.80;;;1.60;;
4766;SDS011;2397;53.576;9.746;2022-09-21T18:07:53;2.23;;;1.53;;
4766;SDS011;2397;53.576;9.746;2022-09-21T18:10:20;2.57;;;1.50;;
4766;SDS011;2397;53.576;9.746;2022-09-21T18:21:02;5.17;;;4.50;;
4766;SDS011;2397;53.576;9.746;2022-09-21T18:23:43;8.47;;;4.80;;
4766;SDS011;2397;53.576;9.746;2022-09-21T18:26:21;7.60;;;3.93;;
4766;SDS011;2397;53.576;9.746;2022-09-21T18:28:48;6.10;;;3.00;;
4766;SDS011;2397;53.576;9.746;2022-09-21T18:34:30;2.60;;;2.37;;
4766;SDS011;2397;53.576;9.746;2022-09-21T18:37:22;2.70;;;2.50;;
4766;SDS011;2397;53.576;9.746;2022-09-21T18:40:20;2.33;;;2.13;;
4766;SDS011;2397;53.576;9.746;2022-09-21T18:43:30;2.50;;;2.30;;
4766;SDS011;2397;53.576;9.746;2022-09-21T18:48:50;2.57;;;2.00;;
4766;SDS011;2397;53.576;9.746;2022-09-21T18:51:30;2.83;;;1.60;;
4766;SDS011;2397;53.576;9.746;2022-09-21T18:54:06;2.77;;;1.97;;
4766;SDS011;2397;53.576;9.746;2022-09-21T18:56:38;2.00;;;1.80;;
4766;SDS011;2397;53.576;9.746;2022-09-21T18:59:05;4.00;;;1.77;;
4766;SDS011;2397;53.576;9.746;2022-09-21T19:01:32;1.90;;;1.80;;
4766;SDS011;2397;53.576;9.746;2022-09-21T19:03:59;1.80;;;1.70;;
4766;SDS011;2397;53.576;9.746;2022-09-21T19:18:23;2.20;;;2.00;;
4766;SDS011;2397;53.576;9.746;2022-09-21T19:24:05;3.33;;;1.70;;
4766;SDS011;2397;53.576;9.746;2022-09-21T19:27:02;3.30;;;2.13;;
4766;SDS011;2397;53.576;9.746;2022-09-21T19:32:16;2.07;;;1.87;;
4766;SDS011;2397;53.576;9.746;2022-09-21T19:34:45;2.20;;;1.53;;
4766;SDS011;2397;53.576;9.746;2022-09-21T19:37:12;6.07;;;2.83;;
4766;SDS011;2397;53.576;9.746;2022-09-21T19:39:39;4.30;;;3.90;;
4766;SDS011;2397;53.576;9.746;2022-09-21T19:42:07;4.43;;;3.70;;
4766;SDS011;2397;53.576;9.746;2022-09-21T19:44:48;6.17;;;5.57;;
4766;SDS011;2397;53.576;9.746;2022-09-21T19:47:43;7.10;;;5.73;;
4766;SDS011;2397;53.576;9.746;2022-09-21T19:50:18;7.80;;;5.87;;
4766;SDS011;2397;53.576;9.746;2022-09-21T19:52:48;6.10;;;5.60;;